ZGKL

Guilin Liangjiang International Airport

Airport
ICAO code
ZGKL
IATA Code
KWL
Summary
ICAO Region
APAC
ICAO Territory
Location

Liangjiang, Guangxi,

Serving
Guilin Liangjiang
Coordinates
25° 12' 57" N , 110° 2' 49" E
KCC
Metar
ZGKL 242100Z 01002MPS 330V050 7000 -SHRA FEW010 FEW030CB SCT030 BKN046 24/24 Q1007 NOSIG

Description

Guilin Liangjiang International Airport, is the airport serving Liangjiang, about 28 km southwest from Guilin City, Guangxi, in the People’s Republic of China.

Climatology

Within the Köppen Climate Classification System, ((Koppen climate classification Cwa)) this climate type generally has warm and humid summers with mild winters. Its extent is from 30 to 50° of latitude mainly on the eastern and western borders of most continents. During the winter, the main weather feature is the mid-latitude cyclone. Convective thunderstorms provide precipitation in the summer months.

Airport map

Aerial View

SKYbrary Partners:

Safety knowledge contributed by: